sensor_id;sensor_type;location;lat;lon;timestamp;P1;durP1;ratioP1;P2;durP2;ratioP2
42726;SDS011;28372;56.832;60.658;2023-09-18T00:01:57;38.00;;;21.83;;
42726;SDS011;28372;56.832;60.658;2023-09-18T00:04:25;34.88;;;21.70;;
42726;SDS011;28372;56.832;60.658;2023-09-18T00:06:53;33.78;;;20.10;;
42726;SDS011;28372;56.832;60.658;2023-09-18T00:09:21;34.15;;;19.30;;
42726;SDS011;28372;56.832;60.658;2023-09-18T00:11:48;30.00;;;18.73;;
42726;SDS011;28372;56.832;60.658;2023-09-18T00:14:16;30.88;;;19.05;;
42726;SDS011;28372;56.832;60.658;2023-09-18T00:16:44;34.55;;;19.50;;
42726;SDS011;28372;56.832;60.658;2023-09-18T00:19:24;33.88;;;18.30;;
42726;SDS011;28372;56.832;60.658;2023-09-18T00:21:52;28.35;;;17.90;;
42726;SDS011;28372;56.832;60.658;2023-09-18T00:24:21;32.42;;;18.77;;
42726;SDS011;28372;56.832;60.658;2023-09-18T00:26:49;34.33;;;18.65;;
42726;SDS011;28372;56.832;60.658;2023-09-18T00:29:20;29.17;;;18.67;;
42726;SDS011;28372;56.832;60.658;2023-09-18T00:31:48;30.33;;;17.50;;
42726;SDS011;28372;56.832;60.658;2023-09-18T00:34:16;28.30;;;17.77;;
42726;SDS011;28372;56.832;60.658;2023-09-18T00:36:44;29.00;;;18.23;;
42726;SDS011;28372;56.832;60.658;2023-09-18T00:39:11;28.73;;;18.52;;
42726;SDS011;28372;56.832;60.658;2023-09-18T00:41:39;28.98;;;18.05;;
42726;SDS011;28372;56.832;60.658;2023-09-18T00:44:08;33.38;;;18.55;;
42726;SDS011;28372;56.832;60.658;2023-09-18T00:46:35;28.48;;;18.42;;
42726;SDS011;28372;56.832;60.658;2023-09-18T00:49:03;32.85;;;19.40;;
42726;SDS011;28372;56.832;60.658;2023-09-18T00:51:31;29.50;;;19.30;;
42726;SDS011;28372;56.832;60.658;2023-09-18T00:53:59;30.48;;;18.83;;
42726;SDS011;28372;56.832;60.658;2023-09-18T00:56:27;34.97;;;20.52;;
42726;SDS011;28372;56.832;60.658;2023-09-18T00:58:55;30.70;;;18.63;;
42726;SDS011;28372;56.832;60.658;2023-09-18T01:01:23;31.08;;;20.48;;
42726;SDS011;28372;56.832;60.658;2023-09-18T01:03:51;32.28;;;19.83;;
42726;SDS011;28372;56.832;60.658;2023-09-18T01:06:20;35.08;;;20.20;;
42726;SDS011;28372;56.832;60.658;2023-09-18T01:08:49;28.52;;;18.85;;
42726;SDS011;28372;56.832;60.658;2023-09-18T01:14:09;34.10;;;19.42;;
42726;SDS011;28372;56.832;60.658;2023-09-18T01:17:01;34.22;;;19.38;;
42726;SDS011;28372;56.832;60.658;2023-09-18T01:22:05;33.92;;;20.25;;
42726;SDS011;28372;56.832;60.658;2023-09-18T01:24:34;33.53;;;19.70;;
42726;SDS011;28372;56.832;60.658;2023-09-18T01:27:03;31.50;;;18.40;;
42726;SDS011;28372;56.832;60.658;2023-09-18T01:29:31;33.20;;;20.55;;
42726;SDS011;28372;56.832;60.658;2023-09-18T01:31:59;25.50;;;18.15;;
42726;SDS011;28372;56.832;60.658;2023-09-18T01:34:32;32.05;;;18.92;;
42726;SDS011;28372;56.832;60.658;2023-09-18T01:37:03;30.33;;;17.83;;
42726;SDS011;28372;56.832;60.658;2023-09-18T01:39:33;25.63;;;17.40;;
42726;SDS011;28372;56.832;60.658;2023-09-18T01:42:03;33.55;;;19.02;;
42726;SDS011;28372;56.832;60.658;2023-09-18T01:44:33;32.40;;;18.13;;
42726;SDS011;28372;56.832;60.658;2023-09-18T01:47:02;30.88;;;18.92;;
42726;SDS011;28372;56.832;60.658;2023-09-18T01:49:34;29.77;;;17.58;;
42726;SDS011;28372;56.832;60.658;2023-09-18T01:52:04;30.70;;;17.80;;
42726;SDS011;28372;56.832;60.658;2023-09-18T01:54:34;28.90;;;16.67;;
42726;SDS011;28372;56.832;60.658;2023-09-18T01:57:02;31.02;;;17.90;;
42726;SDS011;28372;56.832;60.658;2023-09-18T01:59:30;28.55;;;16.60;;
42726;SDS011;28372;56.832;60.658;2023-09-18T02:01:59;32.28;;;17.08;;
42726;SDS011;28372;56.832;60.658;2023-09-18T02:04:29;32.47;;;17.70;;
42726;SDS011;28372;56.832;60.658;2023-09-18T02:07:16;29.75;;;17.05;;
42726;SDS011;28372;56.832;60.658;2023-09-18T02:09:44;26.80;;;16.50;;
42726;SDS011;28372;56.832;60.658;2023-09-18T02:12:12;34.35;;;17.67;;
42726;SDS011;28372;56.832;60.658;2023-09-18T02:14:45;27.05;;;16.80;;
42726;SDS011;28372;56.832;60.658;2023-09-18T02:17:13;32.33;;;18.25;;
42726;SDS011;28372;56.832;60.658;2023-09-18T02:19:41;27.67;;;16.55;;
42726;SDS011;28372;56.832;60.658;2023-09-18T02:22:10;29.10;;;15.95;;
42726;SDS011;28372;56.832;60.658;2023-09-18T02:24:38;30.88;;;16.98;;
42726;SDS011;28372;56.832;60.658;2023-09-18T02:27:06;28.80;;;16.20;;
42726;SDS011;28372;56.832;60.658;2023-09-18T02:29:33;24.60;;;16.02;;
42726;SDS011;28372;56.832;60.658;2023-09-18T02:32:01;30.83;;;15.95;;
42726;SDS011;28372;56.832;60.658;2023-09-18T02:34:29;31.33;;;16.50;;
42726;SDS011;28372;56.832;60.658;2023-09-18T02:36:57;29.25;;;16.67;;
42726;SDS011;28372;56.832;60.658;2023-09-18T02:39:25;32.90;;;16.08;;
42726;SDS011;28372;56.832;60.658;2023-09-18T02:41:53;23.42;;;15.02;;
42726;SDS011;28372;56.832;60.658;2023-09-18T02:44:21;28.45;;;15.38;;
42726;SDS011;28372;56.832;60.658;2023-09-18T02:46:49;27.00;;;14.98;;
42726;SDS011;28372;56.832;60.658;2023-09-18T02:49:16;25.17;;;14.55;;
42726;SDS011;28372;56.832;60.658;2023-09-18T02:51:44;23.55;;;14.63;;
42726;SDS011;28372;56.832;60.658;2023-09-18T02:54:12;27.15;;;14.70;;
42726;SDS011;28372;56.832;60.658;2023-09-18T02:56:39;29.50;;;15.52;;
42726;SDS011;28372;56.832;60.658;2023-09-18T02:59:07;25.35;;;14.63;;
42726;SDS011;28372;56.832;60.658;2023-09-18T03:01:36;28.17;;;14.63;;
42726;SDS011;28372;56.832;60.658;2023-09-18T03:04:04;29.00;;;14.57;;
42726;SDS011;28372;56.832;60.658;2023-09-18T03:06:33;24.90;;;14.32;;
42726;SDS011;28372;56.832;60.658;2023-09-18T03:09:00;26.27;;;14.13;;
42726;SDS011;28372;56.832;60.658;2023-09-18T03:11:29;28.25;;;14.82;;
42726;SDS011;28372;56.832;60.658;2023-09-18T03:13:57;24.73;;;14.52;;
42726;SDS011;28372;56.832;60.658;2023-09-18T03:16:25;26.73;;;14.48;;
42726;SDS011;28372;56.832;60.658;2023-09-18T03:18:53;27.38;;;14.70;;
42726;SDS011;28372;56.832;60.658;2023-09-18T03:21:21;28.85;;;14.60;;
42726;SDS011;28372;56.832;60.658;2023-09-18T03:23:49;28.90;;;15.38;;
42726;SDS011;28372;56.832;60.658;2023-09-18T03:26:17;42.50;;;16.83;;
42726;SDS011;28372;56.832;60.658;2023-09-18T03:28:45;32.70;;;16.15;;
42726;SDS011;28372;56.832;60.658;2023-09-18T03:31:13;31.23;;;16.13;;
42726;SDS011;28372;56.832;60.658;2023-09-18T03:33:41;32.67;;;16.00;;
42726;SDS011;28372;56.832;60.658;2023-09-18T03:36:09;31.80;;;16.20;;
42726;SDS011;28372;56.832;60.658;2023-09-18T03:38:38;32.30;;;16.17;;
42726;SDS011;28372;56.832;60.658;2023-09-18T03:41:07;32.00;;;16.10;;
42726;SDS011;28372;56.832;60.658;2023-09-18T03:43:34;32.88;;;15.73;;
42726;SDS011;28372;56.832;60.658;2023-09-18T03:46:03;34.67;;;16.10;;
42726;SDS011;28372;56.832;60.658;2023-09-18T03:48:37;32.75;;;15.52;;
42726;SDS011;28372;56.832;60.658;2023-09-18T03:51:06;31.67;;;15.40;;
42726;SDS011;28372;56.832;60.658;2023-09-18T03:53:35;33.92;;;15.65;;
42726;SDS011;28372;56.832;60.658;2023-09-18T03:56:03;30.02;;;15.85;;
42726;SDS011;28372;56.832;60.658;2023-09-18T03:58:31;29.10;;;15.48;;
42726;SDS011;28372;56.832;60.658;2023-09-18T04:01:02;34.55;;;15.63;;
42726;SDS011;28372;56.832;60.658;2023-09-18T04:03:30;35.22;;;16.63;;
42726;SDS011;28372;56.832;60.658;2023-09-18T04:05:58;33.30;;;16.17;;
42726;SDS011;28372;56.832;60.658;2023-09-18T04:08:26;32.40;;;16.75;;
42726;SDS011;28372;56.832;60.658;2023-09-18T04:10:54;35.78;;;16.95;;
42726;SDS011;28372;56.832;60.658;2023-09-18T04:13:24;35.47;;;16.20;;
42726;SDS011;28372;56.832;60.658;2023-09-18T04:15:52;34.47;;;16.20;;
42726;SDS011;28372;56.832;60.658;2023-09-18T04:18:24;38.42;;;15.80;;
42726;SDS011;28372;56.832;60.658;2023-09-18T04:20:53;37.42;;;16.27;;
42726;SDS011;28372;56.832;60.658;2023-09-18T04:23:25;32.53;;;15.80;;
42726;SDS011;28372;56.832;60.658;2023-09-18T04:28:22;34.20;;;15.70;;
42726;SDS011;28372;56.832;60.658;2023-09-18T04:30:50;32.83;;;15.23;;
42726;SDS011;28372;56.832;60.658;2023-09-18T04:33:21;31.35;;;15.15;;
42726;SDS011;28372;56.832;60.658;2023-09-18T04:35:49;36.63;;;15.48;;
42726;SDS011;28372;56.832;60.658;2023-09-18T04:38:17;33.88;;;15.85;;
42726;SDS011;28372;56.832;60.658;2023-09-18T04:40:47;33.70;;;15.80;;
42726;SDS011;28372;56.832;60.658;2023-09-18T04:43:14;34.05;;;15.20;;
42726;SDS011;28372;56.832;60.658;2023-09-18T04:45:44;29.63;;;15.43;;
42726;SDS011;28372;56.832;60.658;2023-09-18T04:48:13;31.52;;;16.35;;
42726;SDS011;28372;56.832;60.658;2023-09-18T04:50:41;31.58;;;15.45;;
42726;SDS011;28372;56.832;60.658;2023-09-18T04:53:09;30.45;;;14.63;;
42726;SDS011;28372;56.832;60.658;2023-09-18T04:55:37;34.40;;;15.02;;
42726;SDS011;28372;56.832;60.658;2023-09-18T04:58:06;24.38;;;14.43;;
42726;SDS011;28372;56.832;60.658;2023-09-18T05:00:33;29.23;;;15.38;;
42726;SDS011;28372;56.832;60.658;2023-09-18T05:03:01;30.77;;;15.23;;
42726;SDS011;28372;56.832;60.658;2023-09-18T05:05:30;32.85;;;16.20;;
42726;SDS011;28372;56.832;60.658;2023-09-18T05:07:58;31.83;;;16.40;;
42726;SDS011;28372;56.832;60.658;2023-09-18T05:10:26;34.83;;;17.38;;
42726;SDS011;28372;56.832;60.658;2023-09-18T05:12:53;36.15;;;16.85;;
42726;SDS011;28372;56.832;60.658;2023-09-18T05:15:26;34.28;;;16.33;;
42726;SDS011;28372;56.832;60.658;2023-09-18T05:17:57;33.13;;;15.90;;
42726;SDS011;28372;56.832;60.658;2023-09-18T05:20:27;30.48;;;15.35;;
42726;SDS011;28372;56.832;60.658;2023-09-18T05:22:56;30.40;;;15.20;;
42726;SDS011;28372;56.832;60.658;2023-09-18T05:25:26;30.05;;;15.43;;
42726;SDS011;28372;56.832;60.658;2023-09-18T05:27:56;29.00;;;15.50;;
42726;SDS011;28372;56.832;60.658;2023-09-18T05:30:31;33.80;;;15.35;;
42726;SDS011;28372;56.832;60.658;2023-09-18T05:33:02;27.80;;;13.73;;
42726;SDS011;28372;56.832;60.658;2023-09-18T05:35:34;28.40;;;13.57;;
42726;SDS011;28372;56.832;60.658;2023-09-18T05:40:34;25.85;;;13.65;;
42726;SDS011;28372;56.832;60.658;2023-09-18T05:43:02;27.33;;;14.57;;
42726;SDS011;28372;56.832;60.658;2023-09-18T05:45:30;31.70;;;14.55;;
42726;SDS011;28372;56.832;60.658;2023-09-18T05:47:59;24.52;;;14.32;;
42726;SDS011;28372;56.832;60.658;2023-09-18T05:50:34;28.80;;;14.73;;
42726;SDS011;28372;56.832;60.658;2023-09-18T05:53:06;30.80;;;13.18;;
42726;SDS011;28372;56.832;60.658;2023-09-18T05:55:34;27.50;;;13.32;;
42726;SDS011;28372;56.832;60.658;2023-09-18T05:58:02;28.80;;;12.43;;
42726;SDS011;28372;56.832;60.658;2023-09-18T06:00:31;25.13;;;12.43;;
42726;SDS011;28372;56.832;60.658;2023-09-18T06:03:00;19.50;;;10.77;;
42726;SDS011;28372;56.832;60.658;2023-09-18T06:05:28;25.08;;;12.25;;
42726;SDS011;28372;56.832;60.658;2023-09-18T06:07:59;27.45;;;13.00;;
42726;SDS011;28372;56.832;60.658;2023-09-18T06:10:27;23.55;;;13.00;;
42726;SDS011;28372;56.832;60.658;2023-09-18T06:12:55;26.65;;;13.65;;
42726;SDS011;28372;56.832;60.658;2023-09-18T06:15:23;26.48;;;12.57;;
42726;SDS011;28372;56.832;60.658;2023-09-18T06:17:50;27.48;;;12.52;;
42726;SDS011;28372;56.832;60.658;2023-09-18T06:20:18;27.60;;;11.68;;
42726;SDS011;28372;56.832;60.658;2023-09-18T06:22:46;20.90;;;10.55;;
42726;SDS011;28372;56.832;60.658;2023-09-18T06:25:14;24.63;;;11.07;;
42726;SDS011;28372;56.832;60.658;2023-09-18T06:27:41;27.98;;;10.80;;
42726;SDS011;28372;56.832;60.658;2023-09-18T06:30:09;28.42;;;11.45;;
42726;SDS011;28372;56.832;60.658;2023-09-18T06:32:38;25.35;;;11.07;;
42726;SDS011;28372;56.832;60.658;2023-09-18T06:35:06;27.05;;;11.48;;
42726;SDS011;28372;56.832;60.658;2023-09-18T06:37:35;24.48;;;11.23;;
42726;SDS011;28372;56.832;60.658;2023-09-18T06:40:03;24.48;;;11.23;;
42726;SDS011;28372;56.832;60.658;2023-09-18T06:42:32;26.95;;;11.07;;
42726;SDS011;28372;56.832;60.658;2023-09-18T06:45:01;27.63;;;11.75;;
42726;SDS011;28372;56.832;60.658;2023-09-18T06:47:31;22.05;;;10.88;;
42726;SDS011;28372;56.832;60.658;2023-09-18T06:49:59;21.75;;;10.63;;
42726;SDS011;28372;56.832;60.658;2023-09-18T06:52:29;21.52;;;10.38;;
42726;SDS011;28372;56.832;60.658;2023-09-18T06:54:56;19.73;;;9.98;;
42726;SDS011;28372;56.832;60.658;2023-09-18T06:57:29;21.13;;;9.82;;
42726;SDS011;28372;56.832;60.658;2023-09-18T06:59:57;18.30;;;9.35;;
42726;SDS011;28372;56.832;60.658;2023-09-18T07:02:24;21.00;;;9.05;;
42726;SDS011;28372;56.832;60.658;2023-09-18T07:04:52;19.73;;;8.20;;
42726;SDS011;28372;56.832;60.658;2023-09-18T07:07:20;15.90;;;8.63;;
42726;SDS011;28372;56.832;60.658;2023-09-18T07:09:52;12.38;;;7.22;;
42726;SDS011;28372;56.832;60.658;2023-09-18T07:12:30;16.10;;;7.13;;
42726;SDS011;28372;56.832;60.658;2023-09-18T07:15:02;13.35;;;7.32;;
42726;SDS011;28372;56.832;60.658;2023-09-18T07:17:31;16.52;;;7.65;;
42726;SDS011;28372;56.832;60.658;2023-09-18T07:20:01;11.30;;;6.80;;
42726;SDS011;28372;56.832;60.658;2023-09-18T07:22:35;15.70;;;7.03;;
42726;SDS011;28372;56.832;60.658;2023-09-18T07:25:02;13.15;;;6.90;;
42726;SDS011;28372;56.832;60.658;2023-09-18T07:27:31;14.48;;;6.50;;
42726;SDS011;28372;56.832;60.658;2023-09-18T07:29:59;16.25;;;6.68;;
42726;SDS011;28372;56.832;60.658;2023-09-18T07:32:26;15.57;;;6.88;;
42726;SDS011;28372;56.832;60.658;2023-09-18T07:35:05;14.07;;;7.28;;
42726;SDS011;28372;56.832;60.658;2023-09-18T07:37:34;14.30;;;7.53;;
42726;SDS011;28372;56.832;60.658;2023-09-18T07:40:03;20.98;;;7.60;;
42726;SDS011;28372;56.832;60.658;2023-09-18T07:42:33;16.40;;;8.38;;
42726;SDS011;28372;56.832;60.658;2023-09-18T07:45:00;12.60;;;6.97;;
42726;SDS011;28372;56.832;60.658;2023-09-18T07:47:31;17.83;;;8.30;;
42726;SDS011;28372;56.832;60.658;2023-09-18T07:49:59;14.32;;;7.00;;
42726;SDS011;28372;56.832;60.658;2023-09-18T07:52:31;19.00;;;7.07;;
42726;SDS011;28372;56.832;60.658;2023-09-18T07:54:59;16.52;;;7.75;;
42726;SDS011;28372;56.832;60.658;2023-09-18T07:57:30;17.17;;;7.57;;
42726;SDS011;28372;56.832;60.658;2023-09-18T08:00:01;19.35;;;7.20;;
42726;SDS011;28372;56.832;60.658;2023-09-18T08:02:40;18.23;;;7.47;;
42726;SDS011;28372;56.832;60.658;2023-09-18T08:05:10;17.50;;;7.40;;
42726;SDS011;28372;56.832;60.658;2023-09-18T08:07:38;19.85;;;8.30;;
42726;SDS011;28372;56.832;60.658;2023-09-18T08:10:05;16.63;;;7.25;;
42726;SDS011;28372;56.832;60.658;2023-09-18T08:12:35;18.77;;;8.93;;
42726;SDS011;28372;56.832;60.658;2023-09-18T08:15:03;20.00;;;8.20;;
42726;SDS011;28372;56.832;60.658;2023-09-18T08:17:33;15.65;;;7.78;;
42726;SDS011;28372;56.832;60.658;2023-09-18T08:20:01;17.15;;;8.25;;
42726;SDS011;28372;56.832;60.658;2023-09-18T08:22:29;16.85;;;8.40;;
42726;SDS011;28372;56.832;60.658;2023-09-18T08:24:57;17.65;;;8.18;;
42726;SDS011;28372;56.832;60.658;2023-09-18T08:27:24;17.88;;;7.82;;
42726;SDS011;28372;56.832;60.658;2023-09-18T08:29:52;16.42;;;7.82;;
42726;SDS011;28372;56.832;60.658;2023-09-18T08:32:20;12.93;;;7.22;;
42726;SDS011;28372;56.832;60.658;2023-09-18T08:34:48;10.77;;;7.10;;
42726;SDS011;28372;56.832;60.658;2023-09-18T08:37:15;15.45;;;7.88;;
42726;SDS011;28372;56.832;60.658;2023-09-18T08:39:43;15.55;;;7.57;;
42726;SDS011;28372;56.832;60.658;2023-09-18T08:42:11;16.58;;;8.38;;
42726;SDS011;28372;56.832;60.658;2023-09-18T08:44:41;15.80;;;7.82;;
42726;SDS011;28372;56.832;60.658;2023-09-18T08:47:13;13.63;;;7.20;;
42726;SDS011;28372;56.832;60.658;2023-09-18T08:49:42;12.95;;;7.30;;
42726;SDS011;28372;56.832;60.658;2023-09-18T08:52:11;15.27;;;7.43;;
42726;SDS011;28372;56.832;60.658;2023-09-18T08:54:40;12.68;;;7.28;;
42726;SDS011;28372;56.832;60.658;2023-09-18T08:57:07;14.18;;;7.13;;
42726;SDS011;28372;56.832;60.658;2023-09-18T08:59:35;15.77;;;7.63;;
42726;SDS011;28372;56.832;60.658;2023-09-18T09:02:04;15.40;;;7.88;;
42726;SDS011;28372;56.832;60.658;2023-09-18T09:04:32;18.08;;;7.90;;
42726;SDS011;28372;56.832;60.658;2023-09-18T09:07:00;15.02;;;7.13;;
42726;SDS011;28372;56.832;60.658;2023-09-18T09:09:27;12.45;;;6.13;;
42726;SDS011;28372;56.832;60.658;2023-09-18T09:11:55;10.35;;;5.93;;
42726;SDS011;28372;56.832;60.658;2023-09-18T09:14:23;15.15;;;6.38;;
42726;SDS011;28372;56.832;60.658;2023-09-18T09:16:57;9.05;;;6.05;;
42726;SDS011;28372;56.832;60.658;2023-09-18T09:19:31;9.10;;;5.97;;
42726;SDS011;28372;56.832;60.658;2023-09-18T09:22:04;11.60;;;6.38;;
42726;SDS011;28372;56.832;60.658;2023-09-18T09:24:42;12.15;;;7.07;;
42726;SDS011;28372;56.832;60.658;2023-09-18T09:27:11;12.90;;;6.25;;
42726;SDS011;28372;56.832;60.658;2023-09-18T09:29:41;10.63;;;6.55;;
42726;SDS011;28372;56.832;60.658;2023-09-18T09:32:18;13.85;;;6.18;;
42726;SDS011;28372;56.832;60.658;2023-09-18T09:34:47;10.80;;;6.55;;
42726;SDS011;28372;56.832;60.658;2023-09-18T09:37:14;11.30;;;5.65;;
42726;SDS011;28372;56.832;60.658;2023-09-18T09:39:49;7.50;;;5.50;;
42726;SDS011;28372;56.832;60.658;2023-09-18T09:42:18;10.32;;;5.53;;
42726;SDS011;28372;56.832;60.658;2023-09-18T09:45:00;11.57;;;5.97;;
42726;SDS011;28372;56.832;60.658;2023-09-18T09:47:33;10.45;;;5.43;;
42726;SDS011;28372;56.832;60.658;2023-09-18T09:50:09;12.90;;;5.43;;
42726;SDS011;28372;56.832;60.658;2023-09-18T09:52:41;7.50;;;5.07;;
42726;SDS011;28372;56.832;60.658;2023-09-18T09:55:18;11.85;;;5.97;;
42726;SDS011;28372;56.832;60.658;2023-09-18T09:57:57;10.07;;;5.55;;
42726;SDS011;28372;56.832;60.658;2023-09-18T10:00:32;8.77;;;5.38;;
42726;SDS011;28372;56.832;60.658;2023-09-18T10:03:14;8.05;;;4.93;;
42726;SDS011;28372;56.832;60.658;2023-09-18T10:05:46;10.35;;;5.30;;
42726;SDS011;28372;56.832;60.658;2023-09-18T10:08:18;8.32;;;5.55;;
42726;SDS011;28372;56.832;60.658;2023-09-18T10:10:49;11.40;;;5.60;;
42726;SDS011;28372;56.832;60.658;2023-09-18T10:13:59;7.97;;;5.72;;
42726;SDS011;28372;56.832;60.658;2023-09-18T10:16:31;8.77;;;5.45;;
42726;SDS011;28372;56.832;60.658;2023-09-18T10:21:44;10.27;;;5.53;;
42726;SDS011;28372;56.832;60.658;2023-09-18T10:24:24;8.05;;;4.80;;
42726;SDS011;28372;56.832;60.658;2023-09-18T10:26:56;12.50;;;5.72;;
42726;SDS011;28372;56.832;60.658;2023-09-18T10:29:26;7.30;;;5.32;;
42726;SDS011;28372;56.832;60.658;2023-09-18T10:31:55;10.73;;;4.88;;
42726;SDS011;28372;56.832;60.658;2023-09-18T10:34:24;10.98;;;5.30;;
42726;SDS011;28372;56.832;60.658;2023-09-18T10:36:53;8.65;;;5.28;;
42726;SDS011;28372;56.832;60.658;2023-09-18T10:39:23;9.65;;;5.68;;
42726;SDS011;28372;56.832;60.658;2023-09-18T10:41:53;8.98;;;5.80;;
42726;SDS011;28372;56.832;60.658;2023-09-18T10:44:24;12.75;;;5.80;;
42726;SDS011;28372;56.832;60.658;2023-09-18T10:46:52;9.43;;;5.57;;
42726;SDS011;28372;56.832;60.658;2023-09-18T10:49:20;11.15;;;5.95;;
42726;SDS011;28372;56.832;60.658;2023-09-18T10:51:53;10.50;;;5.70;;
42726;SDS011;28372;56.832;60.658;2023-09-18T10:54:25;7.45;;;5.47;;
42726;SDS011;28372;56.832;60.658;2023-09-18T10:56:55;9.63;;;5.87;;
42726;SDS011;28372;56.832;60.658;2023-09-18T10:59:24;6.90;;;5.28;;
42726;SDS011;28372;56.832;60.658;2023-09-18T11:01:52;11.32;;;5.95;;
42726;SDS011;28372;56.832;60.658;2023-09-18T11:04:21;11.02;;;6.15;;
42726;SDS011;28372;56.832;60.658;2023-09-18T11:09:23;9.88;;;5.90;;
42726;SDS011;28372;56.832;60.658;2023-09-18T11:11:53;12.75;;;6.20;;
42726;SDS011;28372;56.832;60.658;2023-09-18T11:17:37;9.18;;;6.70;;
42726;SDS011;28372;56.832;60.658;2023-09-18T11:22:46;10.23;;;6.43;;
42726;SDS011;28372;56.832;60.658;2023-09-18T11:28:06;11.05;;;6.20;;
42726;SDS011;28372;56.832;60.658;2023-09-18T11:30:48;9.90;;;7.00;;
42726;SDS011;28372;56.832;60.658;2023-09-18T11:36:02;10.10;;;6.40;;
42726;SDS011;28372;56.832;60.658;2023-09-18T11:38:34;10.35;;;6.80;;
42726;SDS011;28372;56.832;60.658;2023-09-18T11:41:25;9.35;;;6.22;;
42726;SDS011;28372;56.832;60.658;2023-09-18T11:46:44;9.98;;;5.65;;
42726;SDS011;28372;56.832;60.658;2023-09-18T11:49:14;7.25;;;5.18;;
42726;SDS011;28372;56.832;60.658;2023-09-18T11:51:49;11.27;;;6.10;;
42726;SDS011;28372;56.832;60.658;2023-09-18T11:54:18;9.15;;;5.32;;
42726;SDS011;28372;56.832;60.658;2023-09-18T11:56:46;8.48;;;5.32;;
42726;SDS011;28372;56.832;60.658;2023-09-18T11:59:13;8.88;;;5.70;;
42726;SDS011;28372;56.832;60.658;2023-09-18T12:01:41;8.07;;;5.00;;
42726;SDS011;28372;56.832;60.658;2023-09-18T12:04:13;6.15;;;4.68;;
42726;SDS011;28372;56.832;60.658;2023-09-18T12:06:41;6.88;;;5.32;;
42726;SDS011;28372;56.832;60.658;2023-09-18T12:09:09;8.38;;;5.28;;
42726;SDS011;28372;56.832;60.658;2023-09-18T12:11:41;8.43;;;5.47;;
42726;SDS011;28372;56.832;60.658;2023-09-18T12:14:09;8.35;;;6.30;;
42726;SDS011;28372;56.832;60.658;2023-09-18T12:16:37;8.32;;;5.05;;
42726;SDS011;28372;56.832;60.658;2023-09-18T12:19:08;7.20;;;4.88;;
42726;SDS011;28372;56.832;60.658;2023-09-18T12:21:45;10.18;;;5.68;;
42726;SDS011;28372;56.832;60.658;2023-09-18T12:24:23;8.38;;;5.18;;
42726;SDS011;28372;56.832;60.658;2023-09-18T12:26:53;15.00;;;6.60;;
42726;SDS011;28372;56.832;60.658;2023-09-18T12:29:22;10.85;;;5.20;;
42726;SDS011;28372;56.832;60.658;2023-09-18T12:31:50;7.72;;;3.58;;
42726;SDS011;28372;56.832;60.658;2023-09-18T12:34:20;10.25;;;4.00;;
42726;SDS011;28372;56.832;60.658;2023-09-18T12:36:50;8.05;;;3.60;;
42726;SDS011;28372;56.832;60.658;2023-09-18T12:39:18;11.70;;;4.68;;
42726;SDS011;28372;56.832;60.658;2023-09-18T12:41:48;8.82;;;4.65;;
42726;SDS011;28372;56.832;60.658;2023-09-18T12:44:16;9.00;;;4.72;;
42726;SDS011;28372;56.832;60.658;2023-09-18T12:46:44;11.60;;;4.97;;
42726;SDS011;28372;56.832;60.658;2023-09-18T12:49:15;9.60;;;5.22;;
42726;SDS011;28372;56.832;60.658;2023-09-18T12:51:57;8.32;;;5.00;;
42726;SDS011;28372;56.832;60.658;2023-09-18T12:54:39;9.60;;;4.82;;
42726;SDS011;28372;56.832;60.658;2023-09-18T12:57:20;9.10;;;5.25;;
42726;SDS011;28372;56.832;60.658;2023-09-18T12:59:48;10.50;;;4.80;;
42726;SDS011;28372;56.832;60.658;2023-09-18T13:02:21;8.93;;;5.15;;
42726;SDS011;28372;56.832;60.658;2023-09-18T13:04:56;8.25;;;5.55;;
42726;SDS011;28372;56.832;60.658;2023-09-18T13:07:24;11.30;;;5.38;;
42726;SDS011;28372;56.832;60.658;2023-09-18T13:10:05;7.93;;;5.40;;
42726;SDS011;28372;56.832;60.658;2023-09-18T13:15:07;12.43;;;5.70;;
42726;SDS011;28372;56.832;60.658;2023-09-18T13:17:40;9.75;;;5.40;;
42726;SDS011;28372;56.832;60.658;2023-09-18T13:20:15;10.07;;;5.75;;
42726;SDS011;28372;56.832;60.658;2023-09-18T13:22:47;12.25;;;5.60;;
42726;SDS011;28372;56.832;60.658;2023-09-18T13:25:19;11.03;;;5.20;;
42726;SDS011;28372;56.832;60.658;2023-09-18T13:30:20;14.77;;;6.07;;
42726;SDS011;28372;56.832;60.658;2023-09-18T13:32:49;9.25;;;5.43;;
42726;SDS011;28372;56.832;60.658;2023-09-18T13:35:18;10.93;;;5.82;;
42726;SDS011;28372;56.832;60.658;2023-09-18T13:38:05;10.00;;;5.30;;
42726;SDS011;28372;56.832;60.658;2023-09-18T13:40:35;11.90;;;5.10;;
42726;SDS011;28372;56.832;60.658;2023-09-18T13:43:07;11.10;;;5.25;;
42726;SDS011;28372;56.832;60.658;2023-09-18T13:45:37;11.18;;;5.85;;
42726;SDS011;28372;56.832;60.658;2023-09-18T13:48:05;13.68;;;4.93;;
42726;SDS011;28372;56.832;60.658;2023-09-18T13:50:34;9.75;;;5.22;;
42726;SDS011;28372;56.832;60.658;2023-09-18T13:53:03;10.57;;;5.22;;
42726;SDS011;28372;56.832;60.658;2023-09-18T13:55:33;9.82;;;5.43;;
42726;SDS011;28372;56.832;60.658;2023-09-18T13:58:01;10.73;;;5.60;;
42726;SDS011;28372;56.832;60.658;2023-09-18T14:00:32;9.70;;;5.15;;
42726;SDS011;28372;56.832;60.658;2023-09-18T14:03:00;9.05;;;5.55;;
42726;SDS011;28372;56.832;60.658;2023-09-18T14:05:30;8.40;;;4.88;;
42726;SDS011;28372;56.832;60.658;2023-09-18T14:07:58;11.25;;;4.93;;
42726;SDS011;28372;56.832;60.658;2023-09-18T14:10:27;10.98;;;5.00;;
42726;SDS011;28372;56.832;60.658;2023-09-18T14:12:55;18.25;;;5.50;;
42726;SDS011;28372;56.832;60.658;2023-09-18T14:15:25;11.15;;;5.07;;
42726;SDS011;28372;56.832;60.658;2023-09-18T14:17:53;10.80;;;4.78;;
42726;SDS011;28372;56.832;60.658;2023-09-18T14:20:21;9.38;;;4.80;;
42726;SDS011;28372;56.832;60.658;2023-09-18T14:22:49;10.20;;;5.18;;
42726;SDS011;28372;56.832;60.658;2023-09-18T14:25:17;11.43;;;5.40;;
42726;SDS011;28372;56.832;60.658;2023-09-18T14:27:48;11.52;;;5.00;;
42726;SDS011;28372;56.832;60.658;2023-09-18T14:30:16;17.17;;;4.90;;
42726;SDS011;28372;56.832;60.658;2023-09-18T14:32:44;9.75;;;4.85;;
42726;SDS011;28372;56.832;60.658;2023-09-18T14:35:12;12.98;;;5.05;;
42726;SDS011;28372;56.832;60.658;2023-09-18T14:37:41;10.10;;;4.20;;
42726;SDS011;28372;56.832;60.658;2023-09-18T14:40:09;13.65;;;4.63;;
42726;SDS011;28372;56.832;60.658;2023-09-18T14:42:39;13.25;;;5.25;;
42726;SDS011;28372;56.832;60.658;2023-09-18T14:45:07;11.40;;;4.75;;
42726;SDS011;28372;56.832;60.658;2023-09-18T14:47:36;12.23;;;4.47;;
42726;SDS011;28372;56.832;60.658;2023-09-18T14:50:04;10.65;;;5.30;;
42726;SDS011;28372;56.832;60.658;2023-09-18T14:52:33;8.27;;;4.85;;
42726;SDS011;28372;56.832;60.658;2023-09-18T14:55:01;11.48;;;5.10;;
42726;SDS011;28372;56.832;60.658;2023-09-18T14:57:31;10.55;;;4.85;;
42726;SDS011;28372;56.832;60.658;2023-09-18T14:59:59;12.50;;;5.40;;
42726;SDS011;28372;56.832;60.658;2023-09-18T15:02:30;11.35;;;5.40;;
42726;SDS011;28372;56.832;60.658;2023-09-18T15:04:58;14.00;;;5.07;;
42726;SDS011;28372;56.832;60.658;2023-09-18T15:07:29;15.73;;;5.70;;
42726;SDS011;28372;56.832;60.658;2023-09-18T15:10:00;9.80;;;4.60;;